createdAt,value
2022-09-29T00:00:52.629Z,1.4
2022-09-29T00:16:27.580Z,1.4
2022-09-29T00:32:02.637Z,1.1
2022-09-29T00:47:37.359Z,1.3
2022-09-29T01:03:11.915Z,1.3
2022-09-29T01:18:46.531Z,1.2
2022-09-29T01:34:21.109Z,1.6
2022-09-29T01:49:55.635Z,1.2
2022-09-29T02:05:30.190Z,1.1
2022-09-29T02:21:04.958Z,1
2022-09-29T06:45:11.377Z,1.2
2022-09-29T07:00:47.116Z,1.4
2022-09-29T07:16:25.439Z,2.2
2022-09-29T07:32:24.900Z,2.1
2022-09-29T07:48:02.982Z,1.8
2022-09-29T08:03:52.267Z,1.6
2022-09-29T08:19:26.970Z,1.8
2022-09-29T08:35:01.547Z,1.8
2022-09-29T08:50:36.119Z,1.5
2022-09-29T09:06:10.714Z,1.3
2022-09-29T09:21:45.614Z,1.6
2022-09-29T09:37:32.385Z,1.5
2022-09-29T09:53:08.109Z,1.4
2022-09-29T10:08:49.147Z,1.4
2022-09-29T10:24:23.721Z,1.7
2022-09-29T10:39:58.297Z,1.5
2022-09-29T10:55:32.916Z,1.4
2022-09-29T11:11:07.462Z,1.3
2022-09-29T11:26:43.359Z,1.2
2022-09-29T11:42:18.572Z,1
2022-09-29T11:57:53.133Z,1.1
2022-09-29T12:13:27.785Z,1.2
2022-09-29T12:29:02.534Z,0.9
2022-09-29T12:44:37.324Z,1.2
2022-09-29T13:00:11.947Z,1.2
2022-09-29T13:15:46.750Z,1.2
2022-09-29T13:31:21.833Z,0.7
2022-09-29T13:46:57.314Z,1.2
2022-09-29T14:02:32.069Z,1.5
2022-09-29T14:18:06.910Z,1.2
2022-09-29T14:33:41.673Z,0.8
2022-09-29T14:49:16.624Z,1
2022-09-29T15:04:51.543Z,0.6
2022-09-29T15:20:26.409Z,0.7
2022-09-29T15:36:01.388Z,1.4
2022-09-29T15:51:36.232Z,1
2022-09-29T16:07:10.961Z,0.9
2022-09-29T16:22:45.975Z,1.9
2022-09-29T16:38:20.699Z,1.3
2022-09-29T16:53:55.379Z,1.2
2022-09-29T17:09:30.115Z,1.8
2022-09-29T17:25:04.990Z,1.3
2022-09-29T17:40:39.696Z,1.7
2022-09-29T17:56:14.314Z,1.4
2022-09-29T18:11:49.175Z,1.8
2022-09-29T18:27:23.803Z,1.7
2022-09-29T18:42:58.385Z,1.3
2022-09-29T18:58:33.190Z,2.2
2022-09-29T19:14:07.869Z,2.8
2022-09-29T19:29:42.679Z,2.6
2022-09-29T19:45:17.570Z,2.3
2022-09-29T20:00:52.193Z,2.1
2022-09-29T20:16:26.974Z,3.3
2022-09-29T20:32:02.300Z,3.2
2022-09-29T20:47:36.692Z,2.3
2022-09-29T21:03:11.285Z,2.1
2022-09-29T21:18:45.822Z,2.7
2022-09-29T21:34:20.423Z,2.4
2022-09-29T21:49:55.842Z,2.3
2022-09-29T22:05:30.367Z,2.1
2022-09-29T22:21:04.911Z,2.2
2022-09-29T22:36:39.487Z,1.9
2022-09-29T22:52:14.065Z,2.6
2022-09-29T23:07:48.657Z,1.6
2022-09-29T23:23:23.212Z,1.8
2022-09-29T23:38:57.746Z,2
2022-09-29T23:54:32.301Z,2.3
